Time;durP1;ratioP1;P1;durP2;ratioP2;P2;SDS_P1;SDS_P2;PMS_P1;PMS_P2;Temp;Humidity;BMP_temperature;BMP_pressure;BME280_temperature;BME280_humidity;BME280_pressure;Samples;Min_cycle;Max_cycle;Signal;HPM_P1;HPM_P2
2024/01/31 00:00:44;;;;;;;19.40;10.43;;;;;;;3.29;64.86;101646.53;5011117;28;20235;-60
2024/01/31 00:03:11;;;;;;;22.10;10.27;;;;;;;3.27;64.95;101641.34;5014130;28;20276;-59
2024/01/31 00:05:39;;;;;;;18.67;10.40;;;;;;;3.26;65.00;101642.16;5004664;28;20200;-63
2024/01/31 00:08:07;;;;;;;19.53;10.80;;;;;;;3.22;64.81;101641.97;5002727;28;20255;-62
2024/01/31 00:10:35;;;;;;;18.20;10.13;;;;;;;3.21;65.15;101643.66;5010511;28;20196;-60
2024/01/31 00:13:03;;;;;;;17.80;10.50;;;;;;;3.21;65.55;101636.00;5010744;28;20219;-61
2024/01/31 00:15:32;;;;;;;20.40;10.80;;;;;;;3.20;65.81;101634.25;5005830;28;20362;-63
2024/01/31 00:18:00;;;;;;;19.50;11.10;;;;;;;3.21;65.13;101640.25;5001474;28;20240;-61
2024/01/31 00:20:30;;;;;;;17.93;10.47;;;;;;;3.20;65.18;101638.47;5002888;28;20647;-60
2024/01/31 00:22:57;;;;;;;20.97;10.77;;;;;;;3.18;65.54;101638.41;5002278;28;20211;-59
2024/01/31 00:25:25;;;;;;;21.53;11.47;;;;;;;3.18;65.36;101633.31;5005040;28;20332;-60
2024/01/31 00:27:53;;;;;;;21.37;12.53;;;;;;;3.16;65.69;101634.91;4999900;28;20215;-62
2024/01/31 00:30:21;;;;;;;20.00;11.70;;;;;;;3.15;65.27;101639.16;4996568;28;20299;-60
2024/01/31 00:32:50;;;;;;;19.70;11.07;;;;;;;3.12;65.85;101636.47;5015696;28;20203;-60
2024/01/31 00:35:18;;;;;;;19.70;10.83;;;;;;;3.10;65.48;101635.53;5005016;28;20207;-60
2024/01/31 00:37:46;;;;;;;21.50;11.20;;;;;;;3.09;66.29;101632.91;5009940;28;20204;-60
2024/01/31 00:40:14;;;;;;;20.50;10.63;;;;;;;3.06;65.67;101638.75;5006981;28;20227;-61
2024/01/31 00:42:42;;;;;;;19.17;10.67;;;;;;;3.05;65.79;101631.91;5011285;28;20370;-60
2024/01/31 00:45:13;;;;;;;19.10;11.10;;;;;;;3.04;66.39;101627.63;5008329;28;20210;-62
2024/01/31 00:47:41;;;;;;;19.33;11.37;;;;;;;3.02;66.27;101615.63;5006502;28;20620;-60
2024/01/31 00:50:11;;;;;;;17.87;11.57;;;;;;;3.01;66.27;101621.50;5002929;28;20211;-60
2024/01/31 00:52:40;;;;;;;18.83;10.93;;;;;;;2.98;66.29;101618.84;5012690;28;20291;-60
2024/01/31 00:55:09;;;;;;;21.57;12.47;;;;;;;2.95;66.76;101618.72;5011521;28;20230;-60
2024/01/31 00:57:37;;;;;;;16.87;10.57;;;;;;;2.92;66.68;101608.41;5010558;28;20199;-62
2024/01/31 01:00:08;;;;;;;17.20;9.97;;;;;;;2.90;66.58;101613.41;5009250;28;20231;-59
2024/01/31 01:02:36;;;;;;;16.20;9.87;;;;;;;2.89;66.84;101602.34;5000702;28;20671;-62
2024/01/31 01:05:05;;;;;;;17.63;10.17;;;;;;;2.87;66.56;101605.63;5005483;28;20200;-60
2024/01/31 01:07:36;;;;;;;20.40;11.10;;;;;;;2.87;67.21;101609.06;5008170;28;20669;-65
2024/01/31 01:10:05;;;;;;;15.70;9.33;;;;;;;2.84;67.21;101606.38;5011121;28;20215;-60
2024/01/31 01:12:33;;;;;;;18.87;10.80;;;;;;;2.83;67.59;101604.59;5007189;28;20217;-61
2024/01/31 01:15:01;;;;;;;17.97;10.40;;;;;;;2.82;67.13;101607.97;5018664;28;20294;-60
2024/01/31 01:17:42;;;;;;;19.67;10.80;;;;;;;2.79;67.34;101596.78;5006579;28;20289;-60
2024/01/31 01:20:10;;;;;;;15.67;10.20;;;;;;;2.77;67.19;101603.50;5008926;28;20204;-60
2024/01/31 01:22:42;;;;;;;18.33;10.73;;;;;;;2.77;67.33;101598.41;4998891;28;20208;-59
2024/01/31 01:25:10;;;;;;;18.47;10.40;;;;;;;2.76;68.20;101596.63;5010047;28;20234;-61
2024/01/31 01:27:39;;;;;;;20.60;11.47;;;;;;;2.73;68.33;101597.38;5010066;28;20646;-60
2024/01/31 01:30:08;;;;;;;17.43;9.17;;;;;;;2.70;68.27;101592.16;5006741;28;20700;-58
2024/01/31 01:32:36;;;;;;;16.53;9.50;;;;;;;2.72;67.90;101592.22;5012047;28;20225;-58
2024/01/31 01:35:05;;;;;;;17.20;9.83;;;;;;;2.73;67.64;101592.31;5020026;28;20253;-58
2024/01/31 01:37:33;;;;;;;20.10;10.30;;;;;;;2.72;67.97;101585.44;5005284;28;20227;-59
2024/01/31 01:40:03;;;;;;;17.70;10.37;;;;;;;2.72;68.10;101585.44;5021257;28;20291;-61
2024/01/31 01:42:31;;;;;;;16.20;9.73;;;;;;;2.72;68.87;101580.34;5009331;28;20211;-59
2024/01/31 01:44:59;;;;;;;17.03;9.53;;;;;;;2.71;68.58;101588.81;5018333;28;20545;-59
2024/01/31 01:47:27;;;;;;;14.17;8.43;;;;;;;2.72;68.72;101584.56;5009012;28;20212;-58
2024/01/31 01:49:55;;;;;;;14.57;8.60;;;;;;;2.72;68.77;101580.34;5008352;28;20222;-57
2024/01/31 01:52:25;;;;;;;18.37;9.90;;;;;;;2.72;69.08;101579.47;5010865;28;20235;-57
2024/01/31 01:54:54;;;;;;;14.50;9.77;;;;;;;2.74;67.90;101583.84;5010219;28;20757;-58
2024/01/31 01:57:23;;;;;;;14.10;8.90;;;;;;;2.71;68.18;101583.72;5009455;28;20258;-58
2024/01/31 01:59:52;;;;;;;17.33;8.83;;;;;;;2.72;68.64;101580.34;5004859;28;20195;-58
2024/01/31 02:02:20;;;;;;;15.30;8.80;;;;;;;2.72;69.01;101570.16;5000974;28;20259;-58
2024/01/31 02:04:48;;;;;;;16.90;9.50;;;;;;;2.73;68.73;101577.03;5006928;28;20207;-58
2024/01/31 02:07:20;;;;;;;17.60;10.00;;;;;;;2.70;68.62;101579.44;5012960;28;20257;-59
2024/01/31 02:09:50;;;;;;;15.30;8.80;;;;;;;2.66;68.70;101575.88;5012100;28;20208;-58
2024/01/31 02:12:18;;;;;;;17.20;9.60;;;;;;;2.62;69.15;101578.22;5012846;28;20215;-58
2024/01/31 02:14:48;;;;;;;14.43;9.50;;;;;;;2.59;68.91;101573.00;5009194;28;20230;-58
2024/01/31 02:17:16;;;;;;;15.43;8.93;;;;;;;2.56;69.13;101568.63;4998950;28;20232;-57
2024/01/31 02:19:44;;;;;;;15.83;9.67;;;;;;;2.59;69.09;101578.06;5015365;28;20245;-58
2024/01/31 02:22:17;;;;;;;14.63;8.87;;;;;;;2.56;69.81;101572.84;5009476;28;20285;-59
2024/01/31 02:24:46;;;;;;;17.33;9.63;;;;;;;2.55;69.96;101569.44;5019831;28;20206;-58
2024/01/31 02:27:14;;;;;;;13.40;8.80;;;;;;;2.56;69.09;101576.25;5009620;28;20218;-60
2024/01/31 02:29:42;;;;;;;16.77;8.87;;;;;;;2.57;70.03;101584.75;5014402;28;20211;-58
2024/01/31 02:32:10;;;;;;;12.73;8.90;;;;;;;2.57;69.77;101579.66;5009026;28;20199;-58
2024/01/31 02:34:38;;;;;;;16.77;9.00;;;;;;;2.57;69.24;101575.44;5014231;28;20210;-58
2024/01/31 02:37:06;;;;;;;14.17;8.87;;;;;;;2.56;70.19;101573.72;5010951;28;20666;-59
2024/01/31 02:39:36;;;;;;;16.33;9.03;;;;;;;2.59;69.96;101573.00;5010626;28;20230;-59
2024/01/31 02:42:04;;;;;;;15.53;8.80;;;;;;;2.57;70.15;101577.13;5011146;28;20254;-57
2024/01/31 02:44:32;;;;;;;16.23;9.30;;;;;;;2.57;69.93;101575.44;5014939;28;20209;-58
2024/01/31 02:47:00;;;;;;;16.17;9.10;;;;;;;2.59;70.46;101575.53;5021635;28;20709;-60
2024/01/31 02:49:28;;;;;;;16.33;9.30;;;;;;;2.59;70.13;101571.31;5013910;28;20258;-57
2024/01/31 02:51:56;;;;;;;14.17;9.00;;;;;;;2.57;70.23;101575.44;5010465;28;20273;-58
2024/01/31 02:54:24;;;;;;;18.73;9.83;;;;;;;2.57;70.37;101569.50;5002186;28;20242;-58
2024/01/31 02:56:54;;;;;;;15.33;8.97;;;;;;;2.56;70.47;101572.84;5010740;28;20199;-57
2024/01/31 02:59:22;;;;;;;15.47;9.43;;;;;;;2.57;70.60;101565.25;5008005;28;20207;-58
2024/01/31 03:01:50;;;;;;;14.73;9.20;;;;;;;2.57;70.91;101559.31;5006300;28;20214;-59
2024/01/31 03:04:18;;;;;;;16.53;8.90;;;;;;;2.57;70.52;101562.72;5013342;28;20215;-58
2024/01/31 03:06:46;;;;;;;11.03;7.87;;;;;;;2.57;70.92;101564.41;5013720;28;20709;-64
2024/01/31 03:09:15;;;;;;;14.33;9.13;;;;;;;2.57;70.61;101572.91;5021198;28;20242;-59
2024/01/31 03:11:43;;;;;;;15.87;9.50;;;;;;;2.56;71.12;101563.53;5014010;28;20203;-57
2024/01/31 03:14:12;;;;;;;17.93;9.50;;;;;;;2.59;71.09;101562.81;5011854;28;20225;-58
2024/01/31 03:16:40;;;;;;;18.60;9.33;;;;;;;2.59;71.16;101557.72;5010272;28;20242;-58
2024/01/31 03:19:08;;;;;;;15.87;9.63;;;;;;;2.60;71.64;101559.44;5013286;28;20657;-58
2024/01/31 03:21:36;;;;;;;14.47;9.57;;;;;;;2.60;71.30;101555.22;5016868;28;20203;-59
2024/01/31 03:24:05;;;;;;;14.37;8.80;;;;;;;2.61;71.49;101559.53;5010294;28;20249;-59
2024/01/31 03:26:33;;;;;;;14.97;8.97;;;;;;;2.62;71.53;101558.72;5002851;28;20207;-58
2024/01/31 03:29:02;;;;;;;16.90;10.10;;;;;;;2.64;71.14;101546.94;5007258;28;20214;-60
2024/01/31 03:31:31;;;;;;;20.60;9.63;;;;;;;2.66;70.81;101552.09;5010077;28;20306;-58
2024/01/31 03:33:59;;;;;;;13.60;8.67;;;;;;;2.69;71.65;101549.69;5005003;28;20223;-56
2024/01/31 03:36:27;;;;;;;14.73;9.10;;;;;;;2.71;71.67;101568.44;5012964;28;20254;-58
2024/01/31 03:38:58;;;;;;;16.50;10.07;;;;;;;2.72;71.45;101559.13;5007206;28;20643;-58
2024/01/31 03:41:27;;;;;;;16.37;9.93;;;;;;;2.74;71.62;101553.31;5009736;28;20730;-58
2024/01/31 03:43:56;;;;;;;15.73;9.60;;;;;;;2.77;71.47;101561.09;5000956;28;20200;-59
2024/01/31 03:46:25;;;;;;;17.00;9.10;;;;;;;2.80;71.96;101565.41;5017092;28;20205;-60
2024/01/31 03:48:55;;;;;;;17.03;10.17;;;;;;;2.82;71.64;101559.59;5013376;28;20799;-57
2024/01/31 03:51:25;;;;;;;13.70;8.80;;;;;;;2.82;71.77;101564.69;5009410;28;20241;-60
2024/01/31 03:53:53;;;;;;;18.03;10.13;;;;;;;2.87;71.57;101557.25;5004468;28;20266;-59
2024/01/31 03:56:21;;;;;;;17.10;10.57;;;;;;;2.88;72.21;101556.47;5010776;28;21056;-60
2024/01/31 03:58:49;;;;;;;15.97;10.57;;;;;;;2.90;71.87;101555.72;5004413;28;20298;-61
2024/01/31 04:01:18;;;;;;;19.37;10.03;;;;;;;2.92;71.39;101547.28;5002058;28;20214;-60
2024/01/31 04:03:47;;;;;;;16.50;9.87;;;;;;;2.97;71.47;101550.91;5001522;28;20196;-61
2024/01/31 04:06:18;;;;;;;17.20;10.03;;;;;;;2.98;72.04;101552.63;5007140;28;20245;-62
2024/01/31 04:08:46;;;;;;;19.43;11.63;;;;;;;3.01;71.59;101552.78;4998698;28;20654;-60
2024/01/31 04:11:14;;;;;;;16.67;9.80;;;;;;;3.04;71.69;101558.00;5009525;28;20306;-63
2024/01/31 04:13:44;;;;;;;17.50;10.63;;;;;;;3.06;72.16;101556.41;5009254;28;20221;-61
2024/01/31 04:16:15;;;;;;;17.30;9.80;;;;;;;3.08;72.13;101558.19;5004065;28;20254;-61
2024/01/31 04:18:43;;;;;;;19.00;11.00;;;;;;;3.11;71.72;101560.00;5012305;28;20689;-62
2024/01/31 04:21:20;;;;;;;13.63;9.90;;;;;;;3.11;72.13;101557.47;5009361;28;20211;-60
2024/01/31 04:23:49;;;;;;;18.00;10.97;;;;;;;3.14;71.77;101567.78;5013761;28;20231;-61
2024/01/31 04:26:17;;;;;;;17.87;11.30;;;;;;;3.15;71.79;101561.88;5005142;28;20208;-61
2024/01/31 04:28:45;;;;;;;17.53;10.53;;;;;;;3.15;71.84;101561.88;5006008;28;20284;-61
2024/01/31 04:31:14;;;;;;;18.87;11.03;;;;;;;3.17;71.90;101565.38;5004321;28;20231;-61
2024/01/31 04:33:43;;;;;;;16.07;10.57;;;;;;;3.18;72.44;101562.00;5011691;28;20200;-62
2024/01/31 04:36:11;;;;;;;20.57;11.77;;;;;;;3.17;72.56;101570.47;5011165;28;20222;-61
2024/01/31 04:38:41;;;;;;;17.43;10.50;;;;;;;3.16;72.92;101566.16;5012078;28;20207;-61
2024/01/31 04:41:09;;;;;;;21.43;11.50;;;;;;;3.17;72.54;101570.47;5006061;28;20196;-61
2024/01/31 04:43:37;;;;;;;17.10;11.00;;;;;;;3.20;72.95;101569.72;5010809;28;20203;-61
2024/01/31 04:46:05;;;;;;;17.40;10.73;;;;;;;3.19;73.14;101568.84;5016865;28;20214;-60
2024/01/31 04:48:33;;;;;;;18.00;11.13;;;;;;;3.20;72.81;101574.81;5010732;28;20211;-64
2024/01/31 04:51:03;;;;;;;19.10;11.10;;;;;;;3.22;72.40;101573.22;5005850;28;20226;-60
2024/01/31 04:53:31;;;;;;;16.27;10.90;;;;;;;3.23;72.73;101568.16;5002114;28;20655;-60
2024/01/31 04:56:01;;;;;;;15.27;9.90;;;;;;;3.30;72.77;101571.84;5009925;28;20729;-62
2024/01/31 04:58:28;;;;;;;15.27;10.90;;;;;;;3.34;72.92;101578.81;5008608;28;20218;-61
2024/01/31 05:00:56;;;;;;;15.43;10.60;;;;;;;3.34;72.96;101577.13;5014721;28;20285;-63
2024/01/31 05:03:24;;;;;;;17.27;11.13;;;;;;;3.37;72.66;101574.72;5006986;28;20654;-58
2024/01/31 05:05:52;;;;;;;16.93;10.33;;;;;;;3.36;72.73;101572.97;5009321;28;20214;-59
2024/01/31 05:08:20;;;;;;;15.63;10.33;;;;;;;3.37;72.63;101567.06;5007787;28;20662;-57
2024/01/31 05:10:48;;;;;;;15.97;10.43;;;;;;;3.42;73.04;101584.22;5003123;28;20220;-61
2024/01/31 05:13:18;;;;;;;17.37;11.10;;;;;;;3.43;72.18;101583.44;5013125;28;20214;-61
2024/01/31 05:15:45;;;;;;;16.90;11.03;;;;;;;3.43;72.88;101581.75;5007116;28;20298;-59
2024/01/31 05:18:14;;;;;;;18.53;11.53;;;;;;;3.45;72.49;101582.69;5006544;28;20293;-60
2024/01/31 05:20:42;;;;;;;18.63;12.00;;;;;;;3.46;72.85;101583.53;5009858;28;20681;-61
2024/01/31 05:23:10;;;;;;;18.33;11.40;;;;;;;3.48;72.97;101581.94;5009933;28;20649;-58
2024/01/31 05:25:39;;;;;;;17.60;11.43;;;;;;;3.51;73.34;101587.19;5003483;28;20659;-64
2024/01/31 05:28:07;;;;;;;19.30;11.87;;;;;;;3.51;73.45;101585.50;5010851;28;20650;-59
2024/01/31 05:30:36;;;;;;;18.57;10.97;;;;;;;3.55;74.07;101578.84;5012596;28;20195;-59
2024/01/31 05:33:04;;;;;;;19.10;12.10;;;;;;;3.59;74.15;101578.16;5006240;28;20203;-60
2024/01/31 05:35:35;;;;;;;20.43;12.50;;;;;;;3.59;74.76;101578.16;5012049;28;20203;-59
2024/01/31 05:38:05;;;;;;;17.97;11.97;;;;;;;3.62;74.76;101578.28;5017919;28;20209;-59
2024/01/31 05:40:33;;;;;;;18.63;12.10;;;;;;;3.65;74.99;101580.13;5009048;28;20215;-60
2024/01/31 05:43:01;;;;;;;18.47;11.73;;;;;;;3.67;75.29;101579.34;5008801;28;20207;-58
2024/01/31 05:45:29;;;;;;;19.90;12.00;;;;;;;3.70;74.71;101582.03;5009431;28;20737;-58
2024/01/31 05:47:58;;;;;;;20.50;12.07;;;;;;;3.71;75.32;101576.09;5012414;28;20211;-60
2024/01/31 05:50:26;;;;;;;22.87;13.27;;;;;;;3.74;75.17;101586.44;5008598;28;20199;-61
2024/01/31 05:52:54;;;;;;;19.30;12.10;;;;;;;3.78;75.25;101577.25;5009936;28;20215;-62
2024/01/31 05:55:22;;;;;;;19.17;12.70;;;;;;;3.79;75.46;101567.13;5003287;28;20212;-60
2024/01/31 05:57:51;;;;;;;22.93;13.43;;;;;;;3.81;74.95;101562.94;5012606;28;20204;-62
2024/01/31 06:00:20;;;;;;;20.57;12.93;;;;;;;3.84;75.34;101568.16;5013455;28;20199;-63
2024/01/31 06:02:48;;;;;;;20.40;12.00;;;;;;;3.85;75.72;101567.34;5008742;28;20335;-59
2024/01/31 06:05:23;;;;;;;19.60;12.37;;;;;;;3.88;75.37;101571.72;5000033;28;20222;-60
2024/01/31 06:07:51;;;;;;;19.53;12.17;;;;;;;3.87;75.06;101563.19;5010977;28;20881;-61
2024/01/31 06:10:21;;;;;;;22.47;12.57;;;;;;;3.88;75.49;101564.94;5011413;28;20618;-60
2024/01/31 06:12:49;;;;;;;19.40;12.83;;;;;;;3.90;75.60;101572.63;5012517;28;20225;-60
2024/01/31 06:15:17;;;;;;;22.50;12.57;;;;;;;3.88;75.65;101580.22;5012268;28;20592;-61
2024/01/31 06:17:45;;;;;;;22.13;12.70;;;;;;;3.90;75.68;101579.41;5013686;28;20320;-61
2024/01/31 06:20:17;;;;;;;22.00;12.23;;;;;;;3.90;75.62;101574.31;5021756;28;20701;-61
2024/01/31 06:22:47;;;;;;;21.97;13.40;;;;;;;3.90;76.03;101585.38;5006090;28;20208;-60
2024/01/31 06:25:15;;;;;;;22.87;12.37;;;;;;;3.90;75.97;101584.50;5007037;28;20274;-61
2024/01/31 06:27:43;;;;;;;24.27;14.07;;;;;;;3.92;75.91;101582.91;5005955;28;20203;-62
2024/01/31 06:30:19;;;;;;;28.07;13.27;;;;;;;3.94;76.32;101588.91;5009956;28;20203;-60
2024/01/31 06:32:48;;;;;;;22.57;13.20;;;;;;;3.96;76.77;101589.84;5007592;28;20211;-61
2024/01/31 06:35:16;;;;;;;21.33;14.13;;;;;;;3.95;76.84;101585.56;5004913;28;20200;-61
2024/01/31 06:37:44;;;;;;;21.30;12.93;;;;;;;3.97;77.00;101589.91;5015970;28;20222;-61
2024/01/31 06:40:14;;;;;;;26.17;14.07;;;;;;;3.98;77.41;101585.72;5006625;28;20199;-61
2024/01/31 06:42:45;;;;;;;23.90;12.70;;;;;;;3.96;77.34;101588.19;5009006;28;20211;-59
2024/01/31 06:45:13;;;;;;;28.03;14.73;;;;;;;3.96;77.76;101590.72;5009837;28;20617;-61
2024/01/31 06:47:43;;;;;;;31.17;15.17;;;;;;;3.97;78.09;101601.78;5011272;28;20211;-62
2024/01/31 06:50:11;;;;;;;25.43;14.87;;;;;;;3.99;78.55;101590.84;5012364;28;20610;-62
2024/01/31 06:52:39;;;;;;;26.37;14.10;;;;;;;3.98;78.38;101599.31;5004726;28;20227;-62
2024/01/31 06:55:08;;;;;;;26.70;14.27;;;;;;;4.00;79.07;101595.13;5012577;28;20206;-60
2024/01/31 06:57:37;;;;;;;25.00;16.23;;;;;;;4.01;78.87;101601.09;5008067;28;20211;-62
2024/01/31 07:00:07;;;;;;;23.83;14.60;;;;;;;3.98;78.92;101598.47;5017703;28;20207;-61
2024/01/31 07:02:35;;;;;;;21.30;13.87;;;;;;;4.04;78.99;101603.78;5007487;28;20215;-62
2024/01/31 07:05:04;;;;;;;25.50;14.20;;;;;;;4.03;79.32;101595.25;5013598;28;20211;-62
2024/01/31 07:07:33;;;;;;;28.23;14.70;;;;;;;4.06;79.29;101594.53;5007733;28;20286;-60
2024/01/31 07:10:01;;;;;;;25.23;15.13;;;;;;;4.07;78.68;101589.47;5019908;28;20208;-61
2024/01/31 07:12:29;;;;;;;26.33;14.57;;;;;;;4.16;78.81;101596.63;5005901;28;20226;-62
2024/01/31 07:14:58;;;;;;;20.77;13.63;;;;;;;4.19;78.34;101586.53;5006945;28;20723;-61
2024/01/31 07:17:26;;;;;;;23.83;13.60;;;;;;;4.23;78.42;101598.59;5011295;28;20235;-62
2024/01/31 07:19:54;;;;;;;22.93;14.07;;;;;;;4.27;78.18;101600.47;5027009;28;20202;-58
2024/01/31 07:22:22;;;;;;;23.07;15.33;;;;;;;4.29;78.51;101580.97;5006838;28;20247;-60
2024/01/31 07:24:50;;;;;;;22.37;13.90;;;;;;;4.32;78.21;101590.44;5006929;28;20200;-58
2024/01/31 07:27:18;;;;;;;28.57;14.57;;;;;;;4.34;78.40;101573.50;5013540;28;20230;-56
2024/01/31 07:29:46;;;;;;;19.73;13.67;;;;;;;4.36;77.71;101589.75;5006111;28;20212;-59
2024/01/31 07:32:15;;;;;;;23.73;14.23;;;;;;;4.36;77.60;101582.97;5017108;28;20218;-58
2024/01/31 07:34:43;;;;;;;24.23;14.40;;;;;;;4.36;77.61;101584.66;5009681;28;20207;-58
2024/01/31 07:37:11;;;;;;;22.00;14.57;;;;;;;4.37;77.68;101596.59;5013417;28;20325;-58
2024/01/31 07:39:39;;;;;;;21.17;13.13;;;;;;;4.39;77.13;101591.56;5007245;28;20290;-58
2024/01/31 07:42:08;;;;;;;24.33;14.87;;;;;;;4.42;77.40;101601.84;5006863;28;20662;-56
2024/01/31 07:44:36;;;;;;;26.10;15.37;;;;;;;4.42;77.26;101600.19;5006572;28;20217;-64
2024/01/31 07:47:04;;;;;;;19.43;13.60;;;;;;;4.45;77.29;101599.44;5011141;28;20211;-56
2024/01/31 07:49:33;;;;;;;21.23;13.83;;;;;;;4.49;77.08;101608.94;5013240;28;20211;-61
2024/01/31 07:52:02;;;;;;;24.97;13.50;;;;;;;4.52;76.98;101606.50;5012679;28;20247;-58
2024/01/31 07:54:30;;;;;;;21.90;13.17;;;;;;;4.54;76.74;101599.78;5006091;28;20287;-56
2024/01/31 07:56:59;;;;;;;24.57;14.37;;;;;;;4.58;76.21;101607.63;5005185;28;20554;-58
2024/01/31 07:59:27;;;;;;;24.50;14.97;;;;;;;4.60;76.67;101600.00;5004735;28;20214;-59
2024/01/31 08:01:55;;;;;;;21.87;14.47;;;;;;;4.66;76.48;101614.69;5005623;28;20214;-58
2024/01/31 08:04:23;;;;;;;21.70;14.07;;;;;;;4.68;76.43;101608.84;5008306;28;20207;-57
2024/01/31 08:06:52;;;;;;;22.37;14.37;;;;;;;4.67;76.50;101598.56;5005197;28;20215;-63
2024/01/31 08:09:22;;;;;;;25.37;15.30;;;;;;;4.69;76.26;101610.56;4998249;28;20203;-59
2024/01/31 08:11:50;;;;;;;25.93;14.67;;;;;;;4.67;76.39;101612.19;5009575;28;20966;-61
2024/01/31 08:14:18;;;;;;;25.40;14.70;;;;;;;4.66;76.68;101610.44;5008151;28;20214;-58
2024/01/31 08:16:49;;;;;;;22.50;14.47;;;;;;;4.66;76.77;101610.44;5008336;28;20658;-59
2024/01/31 08:19:17;;;;;;;26.03;14.53;;;;;;;4.69;76.46;101618.22;5004295;28;20210;-58
2024/01/31 08:21:45;;;;;;;21.37;14.13;;;;;;;4.72;76.85;101620.03;5010680;28;20277;-69
2024/01/31 08:24:14;;;;;;;24.47;13.97;;;;;;;4.70;76.92;101619.97;5003463;28;20215;-59
2024/01/31 08:26:42;;;;;;;20.07;13.60;;;;;;;4.69;76.57;101610.56;5006165;28;20636;-60
2024/01/31 08:29:10;;;;;;;20.20;13.27;;;;;;;4.71;77.11;101619.16;5011588;28;20203;-59
2024/01/31 08:31:53;;;;;;;25.37;15.07;;;;;;;4.73;76.80;101622.63;5005941;28;20199;-59
2024/01/31 08:34:21;;;;;;;25.07;14.13;;;;;;;4.74;76.83;101626.06;5008158;28;20566;-59
2024/01/31 08:36:53;;;;;;;25.50;15.00;;;;;;;4.75;76.92;101621.03;5008680;28;20658;-59
2024/01/31 08:39:22;;;;;;;20.00;14.57;;;;;;;4.77;77.25;101624.50;5010197;28;20620;-59
2024/01/31 08:41:50;;;;;;;21.67;14.37;;;;;;;4.78;76.77;101620.25;5009076;28;20295;-64
2024/01/31 08:44:18;;;;;;;20.63;14.57;;;;;;;4.80;77.17;101624.63;5004968;28;20207;-67
2024/01/31 08:46:46;;;;;;;26.03;15.77;;;;;;;4.99;78.94;101627.84;5002986;28;20203;-53
2024/01/31 08:49:34;;;;;;;25.90;14.23;;;;;;;4.96;77.56;101627.72;5006562;28;20721;-52
2024/01/31 08:52:02;;;;;;;19.83;13.47;;;;;;;4.92;77.97;101615.66;5005444;28;20324;-51
2024/01/31 08:54:34;;;;;;;21.57;13.63;;;;;;;4.94;77.29;101626.81;5008793;28;20674;-52
2024/01/31 08:57:02;;;;;;;24.13;14.63;;;;;;;4.99;76.95;101627.84;5009237;28;20642;-50
2024/01/31 08:59:30;;;;;;;21.70;14.03;;;;;;;5.02;77.14;101626.28;5011056;28;20199;-55
2024/01/31 09:01:58;;;;;;;19.93;12.97;;;;;;;5.05;76.41;101625.53;4999415;28;20203;-51
2024/01/31 09:04:26;;;;;;;23.43;14.77;;;;;;;5.08;76.89;101623.94;5008714;28;20199;-51
2024/01/31 09:06:54;;;;;;;23.57;14.33;;;;;;;5.12;76.28;101631.69;5003506;28;20254;-51
2024/01/31 09:09:22;;;;;;;26.37;15.93;;;;;;;5.14;76.32;101610.50;4993677;28;20214;-49
2024/01/31 09:11:52;;;;;;;21.13;13.77;;;;;;;5.19;76.10;101616.69;5006606;28;20203;-51
2024/01/31 09:14:20;;;;;;;21.03;13.87;;;;;;;5.21;76.13;101625.25;5006943;28;20681;-59
2024/01/31 09:16:47;;;;;;;21.93;14.07;;;;;;;5.25;76.32;101616.00;5006759;28;20246;-51
2024/01/31 09:19:16;;;;;;;21.47;14.50;;;;;;;5.26;76.21;101616.03;5012299;28;21190;-50
2024/01/31 09:21:44;;;;;;;24.33;14.30;;;;;;;5.31;76.53;101611.97;5014726;28;20589;-50
2024/01/31 09:24:12;;;;;;;21.43;14.33;;;;;;;5.35;76.21;101630.84;5014622;28;20203;-55
2024/01/31 09:26:40;;;;;;;22.37;14.37;;;;;;;5.42;76.08;101631.94;5008230;28;20207;-50
2024/01/31 09:29:09;;;;;;;18.87;13.10;;;;;;;5.44;75.73;101618.38;5005329;28;20216;-50
2024/01/31 09:31:37;;;;;;;19.50;13.27;;;;;;;5.50;76.35;101616.03;5003847;28;20237;-51
2024/01/31 09:34:05;;;;;;;22.67;13.87;;;;;;;5.59;75.36;101625.69;5008206;28;20256;-54
2024/01/31 09:36:33;;;;;;;21.37;13.60;;;;;;;5.65;74.89;101620.81;5009861;28;20606;-49
2024/01/31 09:39:03;;;;;;;22.90;13.07;;;;;;;5.73;74.59;101626.19;5015501;28;20738;-51
2024/01/31 09:41:31;;;;;;;21.67;14.03;;;;;;;5.73;74.56;101631.28;5014198;28;20203;-53
2024/01/31 09:44:00;;;;;;;22.37;13.90;;;;;;;5.75;74.97;101617.75;5011583;28;20207;-55
2024/01/31 09:46:32;;;;;;;21.23;13.77;;;;;;;5.78;74.73;101616.97;5010592;28;20624;-55
2024/01/31 09:49:00;;;;;;;19.43;13.30;;;;;;;5.80;74.87;101620.44;5013253;28;20294;-54
2024/01/31 09:51:29;;;;;;;20.40;13.77;;;;;;;5.79;74.72;101618.72;5011399;28;20203;-57
2024/01/31 09:53:59;;;;;;;21.87;13.53;;;;;;;5.79;75.65;101614.47;5015998;28;20222;-58
2024/01/31 09:56:31;;;;;;;21.63;13.87;;;;;;;5.75;75.16;101602.41;5016621;28;20199;-57
2024/01/31 09:59:01;;;;;;;21.63;14.37;;;;;;;5.75;75.61;101602.41;5011187;28;20630;-56
2024/01/31 10:01:31;;;;;;;19.80;14.23;;;;;;;5.81;76.13;101596.59;5015115;28;20199;-55
2024/01/31 10:04:00;;;;;;;21.07;13.33;;;;;;;5.78;75.23;101599.94;5015942;28;20298;-56
2024/01/31 10:06:29;;;;;;;20.87;13.87;;;;;;;5.81;75.69;101597.47;5010503;28;20315;-55
2024/01/31 10:08:58;;;;;;;20.87;14.00;;;;;;;5.85;76.13;101598.44;5012503;28;20242;-54
2024/01/31 10:11:27;;;;;;;19.70;13.53;;;;;;;5.89;75.94;101577.28;5011904;28;20565;-57
2024/01/31 10:13:56;;;;;;;19.77;13.50;;;;;;;5.98;74.76;101594.63;5008249;28;20224;-55
2024/01/31 10:16:24;;;;;;;18.30;12.63;;;;;;;6.09;75.41;101588.16;5011760;28;20286;-55
2024/01/31 10:18:54;;;;;;;22.10;13.43;;;;;;;6.18;74.00;101578.19;5013562;28;20883;-64
2024/01/31 10:21:22;;;;;;;21.50;13.87;;;;;;;6.28;73.89;101585.34;5011823;28;20207;-55
2024/01/31 10:23:57;;;;;;;18.53;12.80;;;;;;;6.37;73.75;101578.75;5013420;28;20553;-56
2024/01/31 10:26:26;;;;;;;19.83;13.30;;;;;;;6.49;74.05;101584.28;5008129;28;20203;-56
2024/01/31 10:28:56;;;;;;;22.00;13.97;;;;;;;6.55;73.80;101569.06;5010960;28;20249;-65
2024/01/31 10:31:36;;;;;;;20.87;13.50;;;;;;;6.55;73.08;101571.63;5006456;28;20199;-55
2024/01/31 10:34:07;;;;;;;22.10;13.60;;;;;;;6.53;73.71;101573.28;5010317;28;20267;-55
2024/01/31 10:36:36;;;;;;;19.20;13.07;;;;;;;6.57;72.98;101567.44;5008292;28;20215;-54
2024/01/31 10:39:09;;;;;;;17.57;12.03;;;;;;;6.65;73.50;101565.09;5003493;28;20686;-57
2024/01/31 10:41:39;;;;;;;20.33;13.30;;;;;;;6.74;73.02;101556.00;5006846;28;20219;-56
2024/01/31 10:44:10;;;;;;;17.63;13.30;;;;;;;6.82;73.58;101558.75;5009605;28;20208;-54
2024/01/31 10:46:39;;;;;;;22.97;13.80;;;;;;;6.90;72.54;101558.97;5009055;28;20195;-54
2024/01/31 10:49:09;;;;;;;22.30;13.10;;;;;;;6.95;72.57;101565.09;5009798;28;20724;-55
2024/01/31 10:51:39;;;;;;;21.20;13.23;;;;;;;6.96;72.89;101556.59;5003474;28;20312;-56
2024/01/31 10:54:09;;;;;;;21.13;13.00;;;;;;;6.94;72.12;101558.22;5012299;28;20575;-57
2024/01/31 10:56:38;;;;;;;20.93;13.50;;;;;;;6.92;73.28;101552.19;5009676;28;20274;-54
2024/01/31 10:59:07;;;;;;;19.40;12.80;;;;;;;6.98;73.41;101557.50;5008322;28;20287;-54
2024/01/31 11:01:35;;;;;;;23.40;14.53;;;;;;;6.96;72.36;101556.59;5007425;28;20208;-58
2024/01/31 11:04:03;;;;;;;22.00;15.20;;;;;;;6.95;72.31;101553.13;5009404;28;20602;-57
2024/01/31 11:06:40;;;;;;;22.80;12.63;;;;;;;6.96;73.49;101551.47;5010720;28;20211;-59
2024/01/31 11:09:17;;;;;;;22.43;13.87;;;;;;;6.96;72.66;101552.34;5008087;28;20290;-55
2024/01/31 11:11:45;;;;;;;21.30;14.13;;;;;;;6.86;74.05;101545.22;5006677;28;20198;-55
2024/01/31 11:14:14;;;;;;;22.20;13.70;;;;;;;6.77;74.05;101550.06;5009401;28;20216;-54
2024/01/31 11:16:42;;;;;;;20.83;13.90;;;;;;;6.68;74.54;101544.69;5011631;28;20238;-53
2024/01/31 11:19:19;;;;;;;26.57;13.23;;;;;;;6.67;74.91;101548.97;5009766;28;20557;-59
2024/01/31 11:21:49;;;;;;;20.13;12.07;;;;;;;6.65;75.62;101540.34;5009889;28;20211;-54
2024/01/31 11:24:17;;;;;;;22.40;14.23;;;;;;;6.66;75.81;101541.22;5007602;28;20259;-54
2024/01/31 11:26:45;;;;;;;18.77;12.57;;;;;;;6.67;75.17;101543.84;5011167;28;20199;-61